Terminal Aerodrome Forecast
Issued by NWS Springfield, MO

Home | Current Version | Previous Version | Text Only | Print | Product List | Glossary On
Versions: 1 2 3 4 5 6 7 8 9 10 11 12 13 14
034
FTUS43 KSGF 110526
TAFSGF
TAF
KSGF 110526Z 1106/1206 24005KT P6SM SKC
     FM111200 21009KT P6SM SKC
     FM111500 23014G22KT P6SM FEW250
     FM111700 26019G27KT P6SM SKC
     FM112000 29020G29KT P6SM FEW250
     FM120000 32017G25KT P6SM SCT200=

USA.gov is the U.S. government's official web portal to all federal, state and local government web resources and services.